Time;durP1;ratioP1;P1;durP2;ratioP2;P2;SDS_P1;SDS_P2;PMS_P1;PMS_P2;Temp;Humidity;BMP_temperature;BMP_pressure;BME280_temperature;BME280_humidity;BME280_pressure;Samples;Min_cycle;Max_cycle;Signal;HPM_P1;HPM_P2
2023/10/14 00:01:12;;;;;;;0.30;0.20;;;17.30;84.90;;;;;;5067051;28;20025;-63
2023/10/14 00:03:43;;;;;;;0.30;0.30;;;17.20;84.90;;;;;;5066854;28;20090;-63
2023/10/14 00:06:18;;;;;;;0.80;0.75;;;17.30;84.90;;;;;;5068552;28;20055;-63
2023/10/14 00:08:48;;;;;;;0.28;0.28;;;17.20;84.80;;;;;;5063259;28;20055;-63
2023/10/14 00:11:17;;;;;;;0.43;0.43;;;17.30;85.00;;;;;;5072804;28;20021;-63
2023/10/14 00:13:53;;;;;;;4.75;0.75;;;17.30;85.40;;;;;;5069656;28;20035;-63
2023/10/14 00:18:59;;;;;;;0.22;0.22;;;17.20;85.00;;;;;;5068438;28;20035;-63
2023/10/14 00:21:26;;;;;;;0.22;0.22;;;17.30;85.00;;;;;;5071077;28;20043;-63
2023/10/14 00:23:57;;;;;;;0.20;0.20;;;17.30;85.00;;;;;;5065401;28;20029;-63
2023/10/14 00:26:27;;;;;;;0.20;0.20;;;17.30;84.90;;;;;;5069875;28;20459;-63
2023/10/14 00:31:37;;;;;;;2.00;0.30;;;17.20;84.80;;;;;;5061069;28;20446;-63
2023/10/14 00:34:03;;;;;;;0.40;0.40;;;17.20;85.00;;;;;;5059020;28;20024;-63
2023/10/14 00:36:32;;;;;;;2.05;0.50;;;17.10;85.10;;;;;;5063615;28;20032;-63
2023/10/14 00:38:58;;;;;;;2.40;0.65;;;17.10;85.20;;;;;;5059359;28;20467;-63
2023/10/14 00:41:27;;;;;;;0.45;0.40;;;17.20;85.10;;;;;;5068880;28;20120;-63
2023/10/14 00:43:54;;;;;;;0.90;0.45;;;17.10;85.00;;;;;;5060027;28;20028;-65
2023/10/14 00:46:30;;;;;;;0.28;0.28;;;17.10;85.10;;;;;;5059261;28;20032;-65
2023/10/14 00:49:00;;;;;;;0.47;0.47;;;17.10;85.10;;;;;;5060362;28;20021;-64
2023/10/14 00:51:27;;;;;;;0.65;0.60;;;17.10;85.20;;;;;;5070878;28;20059;-65
2023/10/14 00:54:01;;;;;;;1.38;0.73;;;17.10;85.00;;;;;;5060672;28;20387;-64
2023/10/14 00:56:30;;;;;;;0.47;0.32;;;17.10;85.20;;;;;;5054392;28;20040;-65
2023/10/14 00:59:03;;;;;;;0.70;0.40;;;17.00;85.30;;;;;;5066106;28;20058;-63
2023/10/14 01:01:48;;;;;;;0.60;0.60;;;17.00;85.40;;;;;;5064531;28;20487;-63
2023/10/14 01:04:21;;;;;;;0.75;0.28;;;17.00;85.50;;;;;;5066072;28;20064;-63
2023/10/14 01:07:03;;;;;;;0.73;0.50;;;16.90;85.10;;;;;;5066748;28;20055;-63
2023/10/14 01:12:23;;;;;;;0.25;0.25;;;16.80;85.40;;;;;;5068158;28;20041;-63
2023/10/14 01:14:53;;;;;;;1.17;0.55;;;16.70;84.60;;;;;;5063730;28;20028;-64
2023/10/14 01:17:29;;;;;;;2.95;0.40;;;16.70;84.30;;;;;;5068892;28;20086;-64
2023/10/14 01:20:25;;;;;;;0.55;0.55;;;16.60;84.20;;;;;;5064025;28;20036;-64
2023/10/14 01:22:57;;;;;;;0.60;0.60;;;16.60;84.00;;;;;;5067340;28;20033;-65
2023/10/14 01:25:28;;;;;;;0.28;0.28;;;16.50;83.90;;;;;;5052078;28;20032;-64
2023/10/14 01:27:58;;;;;;;0.90;0.47;;;16.50;84.00;;;;;;5069752;28;20061;-64
2023/10/14 01:30:32;;;;;;;0.47;0.47;;;16.50;83.90;;;;;;5066393;28;20384;-64
2023/10/14 01:33:15;;;;;;;0.40;0.40;;;16.50;83.80;;;;;;5069106;28;20024;-63
2023/10/14 01:35:43;;;;;;;2.13;0.65;;;16.50;83.70;;;;;;5066056;28;20040;-64
2023/10/14 01:38:09;;;;;;;0.35;0.32;;;16.50;83.80;;;;;;5069761;28;20043;-63
2023/10/14 01:43:08;;;;;;;0.75;0.35;;;16.50;83.30;;;;;;5069768;28;20033;-63
2023/10/14 01:48:21;;;;;;;0.93;0.50;;;16.40;83.60;;;;;;5066668;28;20064;-63
2023/10/14 01:50:55;;;;;;;0.40;0.40;;;16.30;83.70;;;;;;5069151;28;20029;-63
2023/10/14 01:53:23;;;;;;;1.05;0.47;;;16.30;83.70;;;;;;5066963;28;20020;-63
2023/10/14 01:55:53;;;;;;;0.95;0.70;;;16.20;83.40;;;;;;5065946;28;20500;-64
2023/10/14 01:58:23;;;;;;;1.75;0.73;;;16.10;83.30;;;;;;5070011;28;20041;-62
2023/10/14 02:00:58;;;;;;;0.88;0.80;;;16.10;83.30;;;;;;5068922;28;20090;-63
2023/10/14 02:03:24;;;;;;;8.02;1.05;;;16.00;83.40;;;;;;5069172;28;20124;-62
2023/10/14 02:05:53;;;;;;;1.05;0.88;;;16.00;83.40;;;;;;5061475;28;20115;-62
2023/10/14 02:08:23;;;;;;;1.33;0.98;;;16.00;83.30;;;;;;5048113;28;20044;-62
2023/10/14 02:10:50;;;;;;;1.30;0.50;;;16.00;83.40;;;;;;5069939;28;20112;-64
2023/10/14 02:13:21;;;;;;;1.40;0.85;;;16.00;83.30;;;;;;5064700;28;20025;-64
2023/10/14 02:15:47;;;;;;;3.40;0.68;;;16.00;83.00;;;;;;5063899;28;20388;-64
2023/10/14 02:18:20;;;;;;;1.05;0.60;;;15.90;82.60;;;;;;5044462;28;20081;-63
2023/10/14 02:20:56;;;;;;;1.48;0.90;;;15.90;82.90;;;;;;5064875;28;20040;-64
2023/10/14 02:23:27;;;;;;;0.80;0.50;;;16.00;82.80;;;;;;5061512;28;20048;-63
2023/10/14 02:25:56;;;;;;;0.85;0.65;;;15.90;82.80;;;;;;5062865;28;20128;-63
2023/10/14 02:28:39;;;;;;;1.80;0.60;;;16.00;82.80;;;;;;5051473;28;20459;-62
2023/10/14 02:31:15;;;;;;;1.38;0.60;;;15.90;82.60;;;;;;5044582;28;20115;-63
2023/10/14 02:33:45;;;;;;;2.83;0.77;;;15.90;82.80;;;;;;5066883;28;20086;-64
2023/10/14 02:36:15;;;;;;;1.10;0.75;;;15.90;82.80;;;;;;5059769;28;20029;-64
2023/10/14 02:38:43;;;;;;;1.45;1.15;;;15.80;82.70;;;;;;5067755;28;20024;-64
2023/10/14 02:41:09;;;;;;;0.40;0.30;;;15.80;82.60;;;;;;5067268;28;20044;-64
2023/10/14 02:43:37;;;;;;;0.50;0.50;;;15.70;82.80;;;;;;5069050;28;20103;-64
2023/10/14 02:46:10;;;;;;;3.83;0.90;;;15.70;82.80;;;;;;5068102;28;20028;-64
2023/10/14 02:49:02;;;;;;;1.05;0.60;;;15.70;82.70;;;;;;5062514;28;20032;-63
2023/10/14 02:51:31;;;;;;;2.97;0.83;;;15.70;82.70;;;;;;5067051;28;20028;-63
2023/10/14 02:54:03;;;;;;;1.38;0.70;;;15.60;82.60;;;;;;5062570;28;20272;-63
2023/10/14 02:56:33;;;;;;;1.20;0.85;;;15.50;82.90;;;;;;5062777;28;20471;-63
2023/10/14 02:58:59;;;;;;;3.80;1.02;;;15.50;82.30;;;;;;5050647;28;20052;-63
2023/10/14 03:01:31;;;;;;;0.65;0.65;;;15.40;82.50;;;;;;5064205;28;20032;-63
2023/10/14 03:03:57;;;;;;;2.65;0.70;;;15.40;82.30;;;;;;5066421;28;20041;-63
2023/10/14 03:06:23;;;;;;;0.93;0.60;;;15.40;82.40;;;;;;5050831;28;20102;-63
2023/10/14 03:08:58;;;;;;;1.10;0.70;;;15.30;82.10;;;;;;5068050;28;20058;-63
2023/10/14 03:11:30;;;;;;;0.88;0.70;;;15.30;82.00;;;;;;5048909;28;20025;-62
2023/10/14 03:13:56;;;;;;;1.52;0.63;;;15.30;81.90;;;;;;5061541;28;20555;-63
2023/10/14 03:16:22;;;;;;;0.60;0.60;;;15.20;82.00;;;;;;5066086;28;20056;-63
2023/10/14 03:18:47;;;;;;;3.47;1.17;;;15.20;81.50;;;;;;5062850;28;20044;-63
2023/10/14 03:21:22;;;;;;;1.50;0.60;;;15.20;81.60;;;;;;5057679;28;20029;-63
2023/10/14 03:23:48;;;;;;;1.05;0.68;;;15.10;81.40;;;;;;5065657;28;20053;-62
2023/10/14 03:26:13;;;;;;;2.75;0.98;;;15.10;81.60;;;;;;5067471;28;20158;-63
2023/10/14 03:28:44;;;;;;;2.60;0.65;;;15.00;81.60;;;;;;5064676;28;20093;-62
2023/10/14 03:31:14;;;;;;;1.35;0.52;;;15.10;81.70;;;;;;5067747;28;20039;-62
2023/10/14 03:33:43;;;;;;;0.80;0.60;;;15.00;81.50;;;;;;5058350;28;20036;-62
2023/10/14 03:36:15;;;;;;;1.20;0.57;;;14.90;80.50;;;;;;5062004;28;20032;-62
2023/10/14 03:38:42;;;;;;;0.63;0.43;;;14.80;80.70;;;;;;5046346;28;20045;-63
2023/10/14 03:41:21;;;;;;;0.65;0.55;;;14.80;81.10;;;;;;5064591;28;20118;-63
2023/10/14 03:46:32;;;;;;;1.80;0.77;;;14.80;80.90;;;;;;5060163;28;20099;-63
2023/10/14 03:49:06;;;;;;;0.57;0.57;;;14.80;80.80;;;;;;5059530;28;20060;-62
2023/10/14 03:51:32;;;;;;;3.33;0.98;;;14.70;80.40;;;;;;5064696;28;20090;-62
2023/10/14 03:54:07;;;;;;;2.33;0.65;;;14.70;80.60;;;;;;5065650;28;20028;-63
2023/10/14 03:56:34;;;;;;;1.17;0.80;;;14.60;80.40;;;;;;5063686;28;20025;-64
2023/10/14 03:59:01;;;;;;;1.08;0.57;;;14.50;80.50;;;;;;5049094;28;20411;-64
2023/10/14 04:01:33;;;;;;;1.33;0.80;;;14.50;80.60;;;;;;5067427;28;20035;-62
2023/10/14 04:04:01;;;;;;;5.00;0.88;;;14.50;80.60;;;;;;5064446;28;20036;-63
2023/10/14 04:06:27;;;;;;;2.70;1.00;;;14.40;80.00;;;;;;5046115;28;20040;-63
2023/10/14 04:08:54;;;;;;;9.52;1.55;;;14.40;80.20;;;;;;5047567;28;20036;-62
2023/10/14 04:11:25;;;;;;;4.57;1.20;;;14.40;80.30;;;;;;5066063;28;20033;-63
2023/10/14 04:14:04;;;;;;;0.97;0.87;;;14.30;80.20;;;;;;5063965;28;20025;-64
2023/10/14 04:19:57;;;;;;;1.50;0.70;;;14.20;80.10;;;;;;5067985;28;20032;-64
2023/10/14 04:22:03;;;;;;;2.42;0.70;;;14.20;80.20;;;;;;5057591;28;20033;-64
2023/10/14 04:29:51;;;;;;;2.83;0.85;;;14.10;79.90;;;;;;5055974;28;20091;-63
2023/10/14 04:32:27;;;;;;;2.28;0.75;;;14.10;79.80;;;;;;5064590;28;20028;-63
2023/10/14 04:34:55;;;;;;;2.20;1.15;;;14.00;79.90;;;;;;5062625;28;20052;-63
2023/10/14 04:37:21;;;;;;;0.45;0.40;;;14.00;79.90;;;;;;5061306;28;20096;-64
2023/10/14 04:39:48;;;;;;;2.47;0.80;;;14.10;79.90;;;;;;5059828;28;20107;-64
2023/10/14 04:44:54;;;;;;;8.80;1.05;;;14.00;79.60;;;;;;5057748;28;20087;-64
2023/10/14 04:47:35;;;;;;;1.23;0.95;;;14.00;79.80;;;;;;5059591;28;20021;-64
2023/10/14 04:50:10;;;;;;;0.32;0.32;;;14.00;79.90;;;;;;5060991;28;20039;-63
2023/10/14 04:52:38;;;;;;;2.30;0.70;;;14.00;79.90;;;;;;5064322;28;20036;-63
2023/10/14 04:58:32;;;;;;;0.95;0.70;;;13.90;79.70;;;;;;5071104;28;20051;-62
2023/10/14 05:00:42;;;;;;;2.10;0.85;;;13.80;79.70;;;;;;5061374;28;20380;-63
2023/10/14 05:03:12;;;;;;;3.00;0.80;;;13.80;79.60;;;;;;5072220;28;20052;-63
2023/10/14 05:05:41;;;;;;;1.73;0.77;;;13.80;79.70;;;;;;5066458;28;20020;-63
2023/10/14 05:08:12;;;;;;;2.08;0.50;;;13.70;79.70;;;;;;5070224;28;20037;-62
2023/10/14 05:10:42;;;;;;;3.53;1.13;;;13.70;79.60;;;;;;5070292;28;20487;-62
2023/10/14 05:13:09;;;;;;;1.08;0.70;;;13.70;79.50;;;;;;5064968;28;20052;-63
2023/10/14 05:15:42;;;;;;;4.20;1.00;;;13.70;79.70;;;;;;5063093;28;20040;-62
2023/10/14 05:18:17;;;;;;;4.97;1.95;;;13.60;79.60;;;;;;5059134;28;20024;-64
2023/10/14 05:23:30;;;;;;;2.08;0.45;;;13.60;79.90;;;;;;5059856;28;20045;-64
2023/10/14 05:25:57;;;;;;;1.20;0.68;;;13.60;79.90;;;;;;5068077;28;20029;-64
2023/10/14 05:28:36;;;;;;;4.03;0.65;;;13.50;80.00;;;;;;5061295;28;20029;-63
2023/10/14 05:31:09;;;;;;;1.75;0.52;;;13.50;79.90;;;;;;5067488;28;20051;-64
2023/10/14 05:33:35;;;;;;;1.50;0.80;;;13.50;80.00;;;;;;5062604;28;20029;-64
2023/10/14 05:36:01;;;;;;;7.13;1.13;;;13.50;80.00;;;;;;5063298;28;20036;-62
2023/10/14 05:38:28;;;;;;;2.00;0.52;;;13.50;79.70;;;;;;5064280;28;20115;-62
2023/10/14 05:40:57;;;;;;;1.38;0.75;;;13.50;79.70;;;;;;5068114;28;20459;-63
2023/10/14 05:43:23;;;;;;;2.03;0.80;;;13.50;79.60;;;;;;5067980;28;20364;-62
2023/10/14 05:45:51;;;;;;;1.95;0.70;;;13.40;79.40;;;;;;5069482;28;20029;-63
2023/10/14 05:48:17;;;;;;;3.13;0.80;;;13.40;79.40;;;;;;5046006;28;20043;-63
2023/10/14 05:50:43;;;;;;;3.08;0.80;;;13.40;79.40;;;;;;5064687;28;20028;-63
2023/10/14 05:53:09;;;;;;;1.05;0.60;;;13.40;79.40;;;;;;5070594;28;20060;-64
2023/10/14 05:55:35;;;;;;;1.75;1.17;;;13.40;79.40;;;;;;5051087;28;20082;-65
2023/10/14 05:58:01;;;;;;;1.55;0.90;;;13.40;79.40;;;;;;5060696;28;20052;-65
2023/10/14 06:00:27;;;;;;;0.73;0.45;;;13.40;79.40;;;;;;5069312;28;20039;-66
2023/10/14 06:02:58;;;;;;;1.48;0.50;;;13.40;79.40;;;;;;5062403;28;20048;-65
2023/10/14 06:05:25;;;;;;;2.35;0.85;;;13.50;79.40;;;;;;5061463;28;20395;-66
2023/10/14 06:07:59;;;;;;;1.83;0.70;;;13.40;79.20;;;;;;5031412;28;20037;-65
2023/10/14 06:10:29;;;;;;;0.77;0.55;;;13.40;79.30;;;;;;5068174;28;20031;-66
2023/10/14 06:12:58;;;;;;;2.10;1.08;;;13.40;79.90;;;;;;5070548;28;20070;-65
2023/10/14 06:15:25;;;;;;;2.97;0.75;;;13.40;79.10;;;;;;5068725;28;20082;-66
2023/10/14 06:17:54;;;;;;;2.63;0.88;;;13.30;79.30;;;;;;5066218;28;20025;-65
2023/10/14 06:20:21;;;;;;;2.08;0.75;;;13.30;79.20;;;;;;5052191;28;20056;-65
2023/10/14 06:22:47;;;;;;;1.25;0.65;;;13.30;79.30;;;;;;5068287;28;20405;-63
2023/10/14 06:25:16;;;;;;;0.70;0.60;;;13.30;79.10;;;;;;5050478;28;20066;-66
2023/10/14 06:27:45;;;;;;;2.15;0.98;;;13.20;79.40;;;;;;5067943;28;20051;-63
2023/10/14 06:30:19;;;;;;;2.28;0.80;;;13.30;79.50;;;;;;5066645;28;20033;-65
2023/10/14 06:32:48;;;;;;;2.67;1.02;;;13.30;79.30;;;;;;5068338;28;20032;-66
2023/10/14 06:35:15;;;;;;;6.25;1.52;;;13.30;79.00;;;;;;5064911;28;20033;-66
2023/10/14 06:37:43;;;;;;;0.88;0.50;;;13.30;79.00;;;;;;5048010;28;20395;-66
2023/10/14 06:40:13;;;;;;;0.80;0.70;;;13.20;79.00;;;;;;5067934;28;20033;-65
2023/10/14 06:42:43;;;;;;;6.40;0.82;;;13.20;79.20;;;;;;5068347;28;20138;-65
2023/10/14 06:45:13;;;;;;;1.60;0.65;;;13.30;79.20;;;;;;5065612;28;20115;-65
2023/10/14 06:47:51;;;;;;;3.03;1.00;;;13.20;78.80;;;;;;5064910;28;21878;-66
2023/10/14 06:50:23;;;;;;;1.13;0.77;;;13.30;79.10;;;;;;5062871;28;20064;-65
2023/10/14 06:53:07;;;;;;;;;;;13.30;79.10;;;;;;5063987;28;20052;-66
2023/10/14 06:55:39;;;;;;;3.55;0.80;;;13.30;79.20;;;;;;5059578;28;19908;-65
2023/10/14 06:58:06;;;;;;;;;;;13.40;79.20;;;;;;5064805;28;20142;-65
2023/10/14 07:00:32;;;;;;;6.05;1.00;;;13.50;79.10;;;;;;5053884;28;20371;-63
2023/10/14 07:02:59;;;;;;;1.42;0.75;;;13.40;79.00;;;;;;5067725;28;20044;-63
2023/10/14 07:05:29;;;;;;;3.00;0.90;;;13.50;79.00;;;;;;5042479;28;20036;-65
2023/10/14 07:07:58;;;;;;;2.80;1.15;;;13.50;78.40;;;;;;5068193;28;20378;-65
2023/10/14 07:10:28;;;;;;;0.50;0.47;;;13.50;78.10;;;;;;5066920;28;20017;-65
2023/10/14 07:12:57;;;;;;;5.03;1.02;;;13.50;78.40;;;;;;5065742;28;20032;-64
2023/10/14 07:15:25;;;;;;;3.33;0.60;;;13.60;78.40;;;;;;5067523;28;20031;-65
2023/10/14 07:17:50;;;;;;;1.17;0.85;;;13.60;78.40;;;;;;5062355;28;20020;-65
2023/10/14 07:20:16;;;;;;;3.90;1.08;;;13.60;78.40;;;;;;5065817;28;20055;-64
2023/10/14 07:22:42;;;;;;;1.40;0.70;;;13.70;78.30;;;;;;5066154;28;20035;-67
2023/10/14 07:25:12;;;;;;;6.05;0.90;;;13.70;78.10;;;;;;5065155;28;20116;-64
2023/10/14 07:27:38;;;;;;;4.10;0.90;;;13.80;78.00;;;;;;5063091;28;20028;-66
2023/10/14 07:30:15;;;;;;;3.38;0.57;;;13.80;77.20;;;;;;5050192;28;20029;-66
2023/10/14 07:32:44;;;;;;;2.47;1.40;;;13.80;77.30;;;;;;5066993;28;20031;-65
2023/10/14 07:35:12;;;;;;;5.70;1.30;;;13.80;77.00;;;;;;5068489;28;20537;-65
2023/10/14 07:37:48;;;;;;;6.82;1.60;;;13.90;77.20;;;;;;5064201;28;20025;-65
2023/10/14 07:40:27;;;;;;;3.20;0.77;;;13.90;76.50;;;;;;5058492;28;20133;-65
2023/10/14 07:43:05;;;;;;;2.55;1.27;;;13.90;76.70;;;;;;5067983;28;20025;-66
2023/10/14 07:45:33;;;;;;;2.35;1.27;;;14.00;76.80;;;;;;5048431;28;20039;-64
2023/10/14 07:48:08;;;;;;;2.63;1.00;;;14.00;76.40;;;;;;5056175;28;20116;-64
2023/10/14 07:50:38;;;;;;;6.70;1.08;;;14.10;76.40;;;;;;5062255;28;20021;-67
2023/10/14 07:53:12;;;;;;;1.75;1.08;;;14.10;76.30;;;;;;5067342;28;20024;-66
2023/10/14 07:55:42;;;;;;;7.13;0.95;;;14.10;76.30;;;;;;5063787;28;20526;-65
2023/10/14 07:58:13;;;;;;;12.32;1.30;;;14.20;76.40;;;;;;5062961;28;20389;-66
2023/10/14 08:00:40;;;;;;;5.43;1.75;;;14.30;76.10;;;;;;5043612;28;20052;-64
2023/10/14 08:03:16;;;;;;;2.33;1.50;;;14.30;75.30;;;;;;5065743;28;20538;-67
2023/10/14 08:05:44;;;;;;;2.35;1.10;;;14.30;75.20;;;;;;5067613;28;20382;-66
2023/10/14 08:08:11;;;;;;;8.18;2.08;;;14.30;75.30;;;;;;5051635;28;20033;-64
2023/10/14 08:10:41;;;;;;;2.70;1.38;;;14.40;75.30;;;;;;5060525;28;20033;-65
2023/10/14 08:13:08;;;;;;;2.70;0.73;;;14.50;74.60;;;;;;5047273;28;20032;-64
2023/10/14 08:15:35;;;;;;;2.95;1.38;;;14.50;74.50;;;;;;5051706;28;20044;-64
2023/10/14 08:18:04;;;;;;;2.13;1.20;;;14.50;73.60;;;;;;5058672;28;20028;-64
2023/10/14 08:20:31;;;;;;;2.55;1.25;;;14.50;73.90;;;;;;5054308;28;20050;-64
2023/10/14 08:22:57;;;;;;;0.75;0.70;;;14.70;74.90;;;;;;5055624;28;20071;-65
2023/10/14 08:25:25;;;;;;;2.28;0.65;;;14.70;73.80;;;;;;5055860;28;20044;-64
2023/10/14 08:27:53;;;;;;;3.65;1.20;;;14.80;72.90;;;;;;5065258;28;20138;-64
2023/10/14 08:30:24;;;;;;;1.88;1.27;;;14.80;73.10;;;;;;5060371;28;20074;-64
2023/10/14 08:32:50;;;;;;;2.83;0.98;;;14.80;72.20;;;;;;5045388;28;20020;-64
2023/10/14 08:35:17;;;;;;;0.70;0.52;;;14.90;72.60;;;;;;5058928;28;20138;-64
2023/10/14 08:37:48;;;;;;;3.30;1.52;;;14.90;73.00;;;;;;5062098;28;20112;-64
2023/10/14 08:40:19;;;;;;;1.55;0.60;;;15.10;72.90;;;;;;5061731;28;20031;-65
2023/10/14 08:43:05;;;;;;;1.27;0.73;;;15.20;73.10;;;;;;5060263;28;20029;-64
2023/10/14 08:45:35;;;;;;;3.95;0.98;;;15.30;73.00;;;;;;5064765;28;20031;-64
2023/10/14 08:48:02;;;;;;;5.85;0.95;;;15.30;72.80;;;;;;5056606;28;20061;-65
2023/10/14 08:50:33;;;;;;;2.60;1.50;;;15.40;72.80;;;;;;5060688;28;20036;-64
2023/10/14 08:53:02;;;;;;;6.22;1.08;;;15.50;72.10;;;;;;5060610;28;20089;-64
2023/10/14 08:55:33;;;;;;;2.78;1.23;;;15.50;71.70;;;;;;5061566;28;20017;-65
2023/10/14 08:58:05;;;;;;;12.43;1.20;;;15.60;72.00;;;;;;5061590;28;20056;-64
2023/10/14 09:00:38;;;;;;;4.00;1.40;;;15.70;71.30;;;;;;5060782;28;20109;-65
2023/10/14 09:03:06;;;;;;;5.43;1.27;;;15.80;71.40;;;;;;5066547;28;20029;-65
2023/10/14 09:05:44;;;;;;;2.55;1.10;;;15.80;70.30;;;;;;5065655;28;20040;-65
2023/10/14 09:08:12;;;;;;;2.90;0.95;;;15.80;70.20;;;;;;5065321;28;20044;-65
2023/10/14 09:10:39;;;;;;;1.38;1.02;;;15.90;70.70;;;;;;5067933;28;20400;-65
2023/10/14 09:13:08;;;;;;;0.45;0.45;;;16.10;70.80;;;;;;5069596;28;20033;-64
2023/10/14 09:15:44;;;;;;;1.90;0.90;;;16.30;70.30;;;;;;5059170;28;20020;-65
2023/10/14 09:18:16;;;;;;;2.70;1.30;;;16.40;68.90;;;;;;5057310;28;20102;-65
2023/10/14 09:20:42;;;;;;;2.88;0.55;;;16.40;68.50;;;;;;5064109;28;20024;-65
2023/10/14 09:23:15;;;;;;;1.08;0.50;;;16.50;69.20;;;;;;5067435;28;20392;-65
2023/10/14 09:25:50;;;;;;;0.80;0.80;;;16.60;68.90;;;;;;5063304;28;20055;-66
2023/10/14 09:28:33;;;;;;;2.42;1.10;;;16.80;68.90;;;;;;5068517;28;20040;-66
2023/10/14 09:30:59;;;;;;;1.88;0.60;;;16.90;68.60;;;;;;5064982;28;20036;-64
2023/10/14 09:33:27;;;;;;;4.55;1.10;;;17.00;67.60;;;;;;5067960;28;20328;-66
2023/10/14 09:36:22;;;;;;;4.03;1.00;;;17.10;67.70;;;;;;5066268;28;20031;-65
2023/10/14 09:38:48;;;;;;;7.22;1.98;;;17.20;66.90;;;;;;5060826;28;20051;-65
2023/10/14 09:41:15;;;;;;;1.25;1.15;;;17.30;66.10;;;;;;5067552;28;20103;-65
2023/10/14 09:43:51;;;;;;;2.63;1.40;;;17.30;65.70;;;;;;5066636;28;20098;-65
2023/10/14 09:46:19;;;;;;;1.92;0.90;;;17.30;65.80;;;;;;5036869;28;20036;-66
2023/10/14 09:48:46;;;;;;;9.57;1.70;;;17.20;66.40;;;;;;5067561;28;20043;-66
2023/10/14 09:51:15;;;;;;;5.80;1.42;;;16.90;65.50;;;;;;5069118;28;20035;-65
2023/10/14 09:53:44;;;;;;;4.28;1.02;;;16.70;66.10;;;;;;5063222;28;20033;-64
2023/10/14 09:56:12;;;;;;;3.35;1.00;;;16.70;66.90;;;;;;5065007;28;20028;-67
2023/10/14 09:58:46;;;;;;;2.97;1.48;;;16.60;67.00;;;;;;5066836;28;20044;-68
2023/10/14 10:01:19;;;;;;;9.30;1.70;;;16.70;67.30;;;;;;5065382;28;20036;-67
2023/10/14 10:04:18;;;;;;;3.70;1.20;;;16.70;66.80;;;;;;5065016;28;20037;-66
2023/10/14 10:06:52;;;;;;;3.90;1.92;;;16.70;67.20;;;;;;5054292;28;20510;-67
2023/10/14 10:09:39;;;;;;;2.80;1.10;;;16.90;66.20;;;;;;5060181;28;20032;-65
2023/10/14 10:12:10;;;;;;;3.85;1.27;;;17.20;66.50;;;;;;5059628;28;20025;-66
2023/10/14 10:14:46;;;;;;;2.75;1.02;;;17.50;66.10;;;;;;5061106;28;20021;-67
2023/10/14 10:17:14;;;;;;;2.35;0.80;;;17.60;64.10;;;;;;5063600;28;21312;-67
2023/10/14 10:20:16;;;;;;;1.83;0.70;;;17.50;63.50;;;;;;5045686;28;20036;-66
2023/10/14 10:22:55;;;;;;;3.08;1.48;;;17.70;64.20;;;;;;5066678;28;20545;-66
2023/10/14 10:25:22;;;;;;;1.77;0.60;;;17.90;61.40;;;;;;5062323;28;20429;-66
2023/10/14 10:27:55;;;;;;;3.05;0.98;;;17.70;62.20;;;;;;5062247;28;20086;-66
2023/10/14 10:30:22;;;;;;;0.43;0.43;;;17.60;61.10;;;;;;5041234;28;20040;-66
2023/10/14 10:32:50;;;;;;;2.25;0.50;;;17.10;57.30;;;;;;5063188;28;20021;-66
2023/10/14 10:35:18;;;;;;;1.83;0.82;;;16.70;56.20;;;;;;5048273;28;20387;-66
2023/10/14 10:37:57;;;;;;;0.40;0.40;;;16.40;56.80;;;;;;5065400;28;20498;-66
2023/10/14 10:40:27;;;;;;;1.20;0.63;;;16.20;58.00;;;;;;5059875;28;20110;-66
2023/10/14 10:42:58;;;;;;;1.75;0.55;;;16.00;57.90;;;;;;5065688;28;20035;-66
2023/10/14 10:45:31;;;;;;;0.68;0.45;;;16.00;58.30;;;;;;5068083;28;20032;-65
2023/10/14 10:47:59;;;;;;;1.73;0.68;;;15.90;59.00;;;;;;5064728;28;20044;-65
2023/10/14 10:50:27;;;;;;;1.63;0.52;;;16.00;59.40;;;;;;5062415;28;20075;-64
2023/10/14 10:53:08;;;;;;;1.35;0.52;;;16.10;59.00;;;;;;5068217;28;20017;-64
2023/10/14 10:55:38;;;;;;;2.10;0.90;;;16.10;57.60;;;;;;5069904;28;20035;-66
2023/10/14 10:58:05;;;;;;;1.15;0.70;;;16.00;58.70;;;;;;5063599;28;20036;-66
2023/10/14 11:00:32;;;;;;;2.95;0.50;;;15.90;59.70;;;;;;5066459;28;20466;-66
2023/10/14 11:03:02;;;;;;;5.57;0.93;;;16.10;59.90;;;;;;5068558;28;20033;-66
2023/10/14 11:05:29;;;;;;;0.98;0.55;;;16.50;59.50;;;;;;5063232;28;20111;-66
2023/10/14 11:07:57;;;;;;;3.65;1.15;;;16.80;59.60;;;;;;5063721;28;20036;-66
2023/10/14 11:10:25;;;;;;;2.35;1.00;;;17.10;59.10;;;;;;5060177;28;20221;-66
2023/10/14 11:12:54;;;;;;;2.55;0.60;;;17.10;58.40;;;;;;5061502;28;20099;-66
2023/10/14 11:15:21;;;;;;;1.38;0.70;;;16.90;59.40;;;;;;5061011;28;20406;-66
2023/10/14 11:17:56;;;;;;;3.20;0.75;;;16.70;60.10;;;;;;5063464;28;20479;-66
2023/10/14 11:20:24;;;;;;;2.17;0.50;;;16.50;60.80;;;;;;5068187;28;20111;-66
2023/10/14 11:22:51;;;;;;;3.05;0.98;;;16.50;62.00;;;;;;5066059;28;20028;-66
2023/10/14 11:25:19;;;;;;;1.17;0.43;;;16.60;62.10;;;;;;5067903;28;20050;-66
2023/10/14 11:27:48;;;;;;;5.85;0.88;;;16.60;62.00;;;;;;5067815;28;20032;-66
2023/10/14 11:30:15;;;;;;;0.70;0.65;;;16.60;62.00;;;;;;5060131;28;20547;-66
2023/10/14 11:32:46;;;;;;;1.95;1.00;;;16.50;62.40;;;;;;5061600;28;20036;-66
2023/10/14 11:35:18;;;;;;;2.08;0.43;;;16.50;62.00;;;;;;5059153;28;20029;-66
2023/10/14 11:37:50;;;;;;;5.28;1.30;;;16.50;61.70;;;;;;5062027;28;20047;-66
2023/10/14 11:40:16;;;;;;;1.85;0.55;;;16.60;60.30;;;;;;5067890;28;20024;-64
2023/10/14 11:42:42;;;;;;;4.25;0.95;;;16.60;60.50;;;;;;5064755;28;20041;-65
2023/10/14 11:45:08;;;;;;;6.03;0.90;;;16.50;58.60;;;;;;5062716;28;20029;-64
2023/10/14 11:47:38;;;;;;;2.63;0.40;;;16.50;58.40;;;;;;5063957;28;20033;-64
2023/10/14 11:50:11;;;;;;;3.80;1.30;;;16.40;57.80;;;;;;5065229;28;20075;-64
2023/10/14 11:52:39;;;;;;;2.25;1.15;;;16.20;57.10;;;;;;5066045;28;20104;-64
2023/10/14 11:55:06;;;;;;;1.00;0.30;;;16.00;57.50;;;;;;5063051;28;20027;-64
2023/10/14 11:57:32;;;;;;;1.17;0.40;;;15.90;58.00;;;;;;5055177;28;20448;-64
2023/10/14 11:59:58;;;;;;;0.45;0.40;;;15.90;58.50;;;;;;5062777;28;20032;-65
2023/10/14 12:02:27;;;;;;;7.13;0.90;;;16.00;58.50;;;;;;5066907;28;20443;-64
2023/10/14 12:04:53;;;;;;;2.15;0.50;;;16.30;59.00;;;;;;5063741;28;20116;-64
2023/10/14 12:07:21;;;;;;;1.85;0.60;;;16.50;58.30;;;;;;5068079;28;20092;-64
2023/10/14 12:09:47;;;;;;;1.50;0.52;;;16.50;57.70;;;;;;5067221;28;20111;-64
2023/10/14 12:12:13;;;;;;;1.83;0.70;;;16.50;57.60;;;;;;5052553;28;20029;-66
2023/10/14 12:14:38;;;;;;;1.85;0.50;;;16.30;58.10;;;;;;5068947;28;20114;-67
2023/10/14 12:17:04;;;;;;;1.15;0.32;;;16.30;58.60;;;;;;5069194;28;20360;-66
2023/10/14 12:19:30;;;;;;;0.50;0.50;;;16.40;59.10;;;;;;5068897;28;20036;-66
2023/10/14 12:21:56;;;;;;;1.50;0.73;;;16.80;59.40;;;;;;5067382;28;20364;-66
2023/10/14 12:24:22;;;;;;;1.00;0.60;;;17.10;58.50;;;;;;5069403;28;20123;-66
2023/10/14 12:26:49;;;;;;;2.50;0.90;;;17.10;58.60;;;;;;5062083;28;20028;-65
2023/10/14 12:29:15;;;;;;;2.50;0.93;;;16.90;59.20;;;;;;5043467;28;20040;-66
2023/10/14 12:31:44;;;;;;;2.05;0.70;;;16.60;58.60;;;;;;5059026;28;20034;-64
2023/10/14 12:34:11;;;;;;;0.30;0.30;;;16.30;58.80;;;;;;5059620;28;20029;-64
2023/10/14 12:36:40;;;;;;;2.40;0.73;;;16.00;60.50;;;;;;5054289;28;20542;-66
2023/10/14 12:39:18;;;;;;;6.60;0.75;;;15.90;62.00;;;;;;5066628;28;20394;-65
2023/10/14 12:41:47;;;;;;;2.85;0.95;;;15.90;62.90;;;;;;5066453;28;20031;-66
2023/10/14 12:44:13;;;;;;;1.65;0.50;;;16.00;63.50;;;;;;5065067;28;20479;-65
2023/10/14 12:46:40;;;;;;;1.65;0.50;;;16.00;62.40;;;;;;5066050;28;20139;-66
2023/10/14 12:49:10;;;;;;;3.05;0.68;;;15.90;61.90;;;;;;5066279;28;20102;-65
2023/10/14 12:51:43;;;;;;;1.52;0.60;;;15.90;61.50;;;;;;5070910;28;20047;-65
2023/10/14 12:54:16;;;;;;;1.85;0.52;;;16.20;61.80;;;;;;5068131;28;20381;-66
2023/10/14 12:56:46;;;;;;;0.95;0.50;;;16.70;59.70;;;;;;5063146;28;20031;-66
2023/10/14 12:59:15;;;;;;;0.75;0.30;;;17.30;59.40;;;;;;5064104;28;20510;-66
2023/10/14 13:01:53;;;;;;;1.95;1.10;;;17.60;58.20;;;;;;5061193;28;20033;-66
2023/10/14 13:04:19;;;;;;;1.30;0.50;;;17.70;57.60;;;;;;5068442;28;20037;-66
2023/10/14 13:06:45;;;;;;;0.70;0.20;;;17.80;58.10;;;;;;5066501;28;20067;-66
2023/10/14 13:09:12;;;;;;;6.53;0.85;;;18.30;58.40;;;;;;5065909;28;20029;-63
2023/10/14 13:11:43;;;;;;;3.95;1.42;;;19.50;57.00;;;;;;5063415;28;20086;-64
2023/10/14 13:14:10;;;;;;;1.35;0.55;;;19.90;54.30;;;;;;5044857;28;20081;-65
2023/10/14 13:16:36;;;;;;;1.38;0.65;;;19.50;54.30;;;;;;5066136;28;20029;-65
2023/10/14 13:19:03;;;;;;;1.25;0.40;;;18.90;55.50;;;;;;5055114;28;20127;-63
2023/10/14 13:21:29;;;;;;;8.20;1.00;;;18.30;56.20;;;;;;5047851;28;20356;-65
2023/10/14 13:23:56;;;;;;;1.08;0.88;;;17.60;56.40;;;;;;5059507;28;20265;-62
2023/10/14 13:26:22;;;;;;;0.35;0.20;;;17.10;58.20;;;;;;5065139;28;20348;-65
2023/10/14 13:28:51;;;;;;;1.88;0.85;;;16.60;59.90;;;;;;5062760;28;20039;-65
2023/10/14 13:31:17;;;;;;;1.65;0.45;;;16.40;61.40;;;;;;5065623;28;20028;-64
2023/10/14 13:33:47;;;;;;;1.90;0.60;;;16.10;62.40;;;;;;5066078;28;20028;-63
2023/10/14 13:36:17;;;;;;;3.20;0.75;;;15.80;63.50;;;;;;5060687;28;21033;-66